sensor_id;sensor_type;location;lat;lon;timestamp;temperature;humidity
10057;DHT22;5068;51.286;7.518;2022-08-03T00:01:23;16.90;60.70
10057;DHT22;5068;51.286;7.518;2022-08-03T00:02:58;16.90;61.70
10057;DHT22;5068;51.286;7.518;2022-08-03T00:04:32;16.90;61.10
10057;DHT22;5068;51.286;7.518;2022-08-03T00:06:05;16.90;61.10
10057;DHT22;5068;51.286;7.518;2022-08-03T00:07:42;16.90;61.20
10057;DHT22;5068;51.286;7.518;2022-08-03T00:09:16;16.80;61.20
10057;DHT22;5068;51.286;7.518;2022-08-03T00:10:50;16.80;61.20
10057;DHT22;5068;51.286;7.518;2022-08-03T00:12:23;16.80;61.20
10057;DHT22;5068;51.286;7.518;2022-08-03T00:13:57;16.80;61.30
10057;DHT22;5068;51.286;7.518;2022-08-03T00:15:30;16.80;61.40
10057;DHT22;5068;51.286;7.518;2022-08-03T00:17:03;16.70;61.40
10057;DHT22;5068;51.286;7.518;2022-08-03T00:18:38;16.70;61.40
10057;DHT22;5068;51.286;7.518;2022-08-03T00:20:12;16.70;61.50
10057;DHT22;5068;51.286;7.518;2022-08-03T00:21:44;16.70;61.50
10057;DHT22;5068;51.286;7.518;2022-08-03T00:23:18;16.70;61.50
10057;DHT22;5068;51.286;7.518;2022-08-03T00:24:52;16.70;61.50
10057;DHT22;5068;51.286;7.518;2022-08-03T00:26:26;16.60;61.40
10057;DHT22;5068;51.286;7.518;2022-08-03T00:27:59;16.60;61.40
10057;DHT22;5068;51.286;7.518;2022-08-03T00:29:32;16.60;61.50
10057;DHT22;5068;51.286;7.518;2022-08-03T00:31:26;16.60;61.70
10057;DHT22;5068;51.286;7.518;2022-08-03T00:33:22;16.50;61.60
10057;DHT22;5068;51.286;7.518;2022-08-03T00:34:59;16.50;61.60
10057;DHT22;5068;51.286;7.518;2022-08-03T00:36:39;16.50;61.60
10057;DHT22;5068;51.286;7.518;2022-08-03T00:38:13;16.50;61.40
10057;DHT22;5068;51.286;7.518;2022-08-03T00:39:47;16.50;61.40
10057;DHT22;5068;51.286;7.518;2022-08-03T00:41:20;16.50;61.60
10057;DHT22;5068;51.286;7.518;2022-08-03T00:42:56;16.40;61.70
10057;DHT22;5068;51.286;7.518;2022-08-03T00:44:30;16.40;61.90
10057;DHT22;5068;51.286;7.518;2022-08-03T00:46:03;16.40;61.90
10057;DHT22;5068;51.286;7.518;2022-08-03T00:47:37;16.40;62.10
10057;DHT22;5068;51.286;7.518;2022-08-03T00:49:10;16.30;62.10
10057;DHT22;5068;51.286;7.518;2022-08-03T00:50:45;16.30;62.20
10057;DHT22;5068;51.286;7.518;2022-08-03T00:52:22;16.30;62.20
10057;DHT22;5068;51.286;7.518;2022-08-03T00:53:56;16.30;62.10
10057;DHT22;5068;51.286;7.518;2022-08-03T00:55:30;16.20;62.00
10057;DHT22;5068;51.286;7.518;2022-08-03T00:57:04;16.20;62.00
10057;DHT22;5068;51.286;7.518;2022-08-03T00:58:38;16.20;62.00
10057;DHT22;5068;51.286;7.518;2022-08-03T01:00:13;16.20;62.00
10057;DHT22;5068;51.286;7.518;2022-08-03T01:01:55;16.20;62.10
10057;DHT22;5068;51.286;7.518;2022-08-03T01:03:30;16.20;62.10
10057;DHT22;5068;51.286;7.518;2022-08-03T01:05:04;16.10;62.00
10057;DHT22;5068;51.286;7.518;2022-08-03T01:06:45;16.10;62.00
10057;DHT22;5068;51.286;7.518;2022-08-03T01:08:33;16.10;62.30
10057;DHT22;5068;51.286;7.518;2022-08-03T01:10:22;16.10;62.60
10057;DHT22;5068;51.286;7.518;2022-08-03T01:12:11;16.10;62.60
10057;DHT22;5068;51.286;7.518;2022-08-03T01:13:56;16.10;62.70
10057;DHT22;5068;51.286;7.518;2022-08-03T01:15:59;16.00;62.60
10057;DHT22;5068;51.286;7.518;2022-08-03T01:17:41;16.00;62.40
10057;DHT22;5068;51.286;7.518;2022-08-03T01:19:35;15.90;62.30
10057;DHT22;5068;51.286;7.518;2022-08-03T01:21:23;15.90;62.50
10057;DHT22;5068;51.286;7.518;2022-08-03T01:25:48;15.90;62.90
10057;DHT22;5068;51.286;7.518;2022-08-03T01:27:47;15.90;63.00
10057;DHT22;5068;51.286;7.518;2022-08-03T01:29:50;15.80;62.60
10057;DHT22;5068;51.286;7.518;2022-08-03T01:31:35;15.80;62.60
10057;DHT22;5068;51.286;7.518;2022-08-03T01:33:38;15.80;62.60
10057;DHT22;5068;51.286;7.518;2022-08-03T01:35:19;15.70;62.50
10057;DHT22;5068;51.286;7.518;2022-08-03T01:36:58;15.70;62.60
10057;DHT22;5068;51.286;7.518;2022-08-03T01:38:41;15.70;62.80
10057;DHT22;5068;51.286;7.518;2022-08-03T01:40:20;15.60;63.00
10057;DHT22;5068;51.286;7.518;2022-08-03T01:41:59;15.60;63.80
10057;DHT22;5068;51.286;7.518;2022-08-03T01:43:39;15.60;63.10
10057;DHT22;5068;51.286;7.518;2022-08-03T01:45:36;15.60;63.00
10057;DHT22;5068;51.286;7.518;2022-08-03T01:47:12;15.60;63.00
10057;DHT22;5068;51.286;7.518;2022-08-03T01:48:47;15.60;63.00
10057;DHT22;5068;51.286;7.518;2022-08-03T01:50:25;15.50;63.10
10057;DHT22;5068;51.286;7.518;2022-08-03T01:52:03;15.50;63.20
10057;DHT22;5068;51.286;7.518;2022-08-03T01:53:43;15.50;63.20
10057;DHT22;5068;51.286;7.518;2022-08-03T01:55:19;15.50;63.20
10057;DHT22;5068;51.286;7.518;2022-08-03T01:56:56;15.40;63.20
10057;DHT22;5068;51.286;7.518;2022-08-03T01:58:31;15.40;63.30
10057;DHT22;5068;51.286;7.518;2022-08-03T02:00:12;15.40;63.30
10057;DHT22;5068;51.286;7.518;2022-08-03T02:01:52;15.40;63.30
10057;DHT22;5068;51.286;7.518;2022-08-03T02:03:52;15.40;63.40
10057;DHT22;5068;51.286;7.518;2022-08-03T02:05:33;15.30;63.10
10057;DHT22;5068;51.286;7.518;2022-08-03T02:07:09;15.30;63.20
10057;DHT22;5068;51.286;7.518;2022-08-03T02:08:44;15.30;63.40
10057;DHT22;5068;51.286;7.518;2022-08-03T02:10:21;15.30;63.50
10057;DHT22;5068;51.286;7.518;2022-08-03T02:12:08;15.30;63.70
10057;DHT22;5068;51.286;7.518;2022-08-03T02:13:48;15.30;63.70
10057;DHT22;5068;51.286;7.518;2022-08-03T02:15:23;15.20;63.60
10057;DHT22;5068;51.286;7.518;2022-08-03T02:17:00;15.20;63.50
10057;DHT22;5068;51.286;7.518;2022-08-03T02:18:34;15.20;63.70
10057;DHT22;5068;51.286;7.518;2022-08-03T02:20:12;15.10;63.70
10057;DHT22;5068;51.286;7.518;2022-08-03T02:21:50;15.10;63.90
10057;DHT22;5068;51.286;7.518;2022-08-03T02:23:33;15.10;64.00
10057;DHT22;5068;51.286;7.518;2022-08-03T02:25:07;15.10;63.90
10057;DHT22;5068;51.286;7.518;2022-08-03T02:26:42;15.10;64.00
10057;DHT22;5068;51.286;7.518;2022-08-03T02:28:19;15.10;64.00
10057;DHT22;5068;51.286;7.518;2022-08-03T02:30:01;15.10;64.20
10057;DHT22;5068;51.286;7.518;2022-08-03T02:31:38;15.00;64.30
10057;DHT22;5068;51.286;7.518;2022-08-03T02:33:20;15.00;64.30
10057;DHT22;5068;51.286;7.518;2022-08-03T02:34:59;15.00;64.60
10057;DHT22;5068;51.286;7.518;2022-08-03T02:36:38;15.00;64.40
10057;DHT22;5068;51.286;7.518;2022-08-03T02:38:14;15.00;64.30
10057;DHT22;5068;51.286;7.518;2022-08-03T02:39:51;15.00;64.40
10057;DHT22;5068;51.286;7.518;2022-08-03T02:41:32;14.90;64.40
10057;DHT22;5068;51.286;7.518;2022-08-03T02:43:16;14.90;64.50
10057;DHT22;5068;51.286;7.518;2022-08-03T02:44:55;14.90;64.60
10057;DHT22;5068;51.286;7.518;2022-08-03T02:46:33;14.90;64.60
10057;DHT22;5068;51.286;7.518;2022-08-03T02:48:09;14.90;64.70
10057;DHT22;5068;51.286;7.518;2022-08-03T02:49:47;14.90;64.90
10057;DHT22;5068;51.286;7.518;2022-08-03T02:51:27;14.90;64.90
10057;DHT22;5068;51.286;7.518;2022-08-03T02:53:06;14.90;64.90
10057;DHT22;5068;51.286;7.518;2022-08-03T02:54:42;14.80;64.90
10057;DHT22;5068;51.286;7.518;2022-08-03T02:56:18;14.80;65.00
10057;DHT22;5068;51.286;7.518;2022-08-03T02:57:52;14.80;65.00
10057;DHT22;5068;51.286;7.518;2022-08-03T03:02:03;14.80;65.60
10057;DHT22;5068;51.286;7.518;2022-08-03T03:03:39;14.80;65.10
10057;DHT22;5068;51.286;7.518;2022-08-03T03:05:17;14.80;65.10
10057;DHT22;5068;51.286;7.518;2022-08-03T03:07:12;14.80;65.20
10057;DHT22;5068;51.286;7.518;2022-08-03T03:08:47;14.80;65.00
10057;DHT22;5068;51.286;7.518;2022-08-03T03:10:21;14.80;65.10
10057;DHT22;5068;51.286;7.518;2022-08-03T03:11:56;14.80;65.20
10057;DHT22;5068;51.286;7.518;2022-08-03T03:13:31;14.70;65.10
10057;DHT22;5068;51.286;7.518;2022-08-03T03:15:06;14.70;65.20
10057;DHT22;5068;51.286;7.518;2022-08-03T03:16:41;14.70;65.20
10057;DHT22;5068;51.286;7.518;2022-08-03T03:18:23;14.70;65.10
10057;DHT22;5068;51.286;7.518;2022-08-03T03:19:58;14.70;65.10
10057;DHT22;5068;51.286;7.518;2022-08-03T03:21:34;14.70;65.20
10057;DHT22;5068;51.286;7.518;2022-08-03T03:23:09;14.70;65.40
10057;DHT22;5068;51.286;7.518;2022-08-03T03:24:44;14.70;65.30
10057;DHT22;5068;51.286;7.518;2022-08-03T03:26:19;14.70;65.30
10057;DHT22;5068;51.286;7.518;2022-08-03T03:27:53;14.70;65.30
10057;DHT22;5068;51.286;7.518;2022-08-03T03:29:28;14.70;65.20
10057;DHT22;5068;51.286;7.518;2022-08-03T03:31:11;14.70;65.30
10057;DHT22;5068;51.286;7.518;2022-08-03T03:32:44;14.70;65.30
10057;DHT22;5068;51.286;7.518;2022-08-03T03:34:18;14.70;65.30
10057;DHT22;5068;51.286;7.518;2022-08-03T03:35:52;14.70;65.60
10057;DHT22;5068;51.286;7.518;2022-08-03T03:37:26;14.70;65.60
10057;DHT22;5068;51.286;7.518;2022-08-03T03:39:00;14.60;65.60
10057;DHT22;5068;51.286;7.518;2022-08-03T03:40:47;14.60;65.60
10057;DHT22;5068;51.286;7.518;2022-08-03T03:42:21;14.60;65.70
10057;DHT22;5068;51.286;7.518;2022-08-03T03:43:55;14.60;65.80
10057;DHT22;5068;51.286;7.518;2022-08-03T03:45:30;14.70;65.90
10057;DHT22;5068;51.286;7.518;2022-08-03T03:47:03;14.60;65.80
10057;DHT22;5068;51.286;7.518;2022-08-03T03:48:38;14.60;65.80
10057;DHT22;5068;51.286;7.518;2022-08-03T03:50:12;14.60;65.90
10057;DHT22;5068;51.286;7.518;2022-08-03T03:51:52;14.60;65.80
10057;DHT22;5068;51.286;7.518;2022-08-03T03:53:27;14.60;65.60
10057;DHT22;5068;51.286;7.518;2022-08-03T03:55:01;14.60;65.40
10057;DHT22;5068;51.286;7.518;2022-08-03T03:56:34;14.60;65.30
10057;DHT22;5068;51.286;7.518;2022-08-03T03:58:08;14.60;65.30
10057;DHT22;5068;51.286;7.518;2022-08-03T03:59:42;14.60;65.30
10057;DHT22;5068;51.286;7.518;2022-08-03T04:01:16;14.60;66.20
10057;DHT22;5068;51.286;7.518;2022-08-03T04:02:50;14.60;65.40
10057;DHT22;5068;51.286;7.518;2022-08-03T04:04:24;14.50;65.30
10057;DHT22;5068;51.286;7.518;2022-08-03T04:06:15;14.50;65.40
10057;DHT22;5068;51.286;7.518;2022-08-03T04:08:08;14.50;65.40
10057;DHT22;5068;51.286;7.518;2022-08-03T04:10:06;14.50;65.40
10057;DHT22;5068;51.286;7.518;2022-08-03T04:12:03;14.50;65.40
10057;DHT22;5068;51.286;7.518;2022-08-03T04:13:41;14.50;65.40
10057;DHT22;5068;51.286;7.518;2022-08-03T04:15:18;14.50;65.60
10057;DHT22;5068;51.286;7.518;2022-08-03T04:16:57;14.50;65.80
10057;DHT22;5068;51.286;7.518;2022-08-03T04:18:34;14.50;65.90
10057;DHT22;5068;51.286;7.518;2022-08-03T04:20:12;14.40;65.80
10057;DHT22;5068;51.286;7.518;2022-08-03T04:21:50;14.40;66.00
10057;DHT22;5068;51.286;7.518;2022-08-03T04:23:30;14.40;66.10
10057;DHT22;5068;51.286;7.518;2022-08-03T04:25:09;14.40;66.00
10057;DHT22;5068;51.286;7.518;2022-08-03T04:26:50;14.40;65.90
10057;DHT22;5068;51.286;7.518;2022-08-03T04:28:25;14.40;65.90
10057;DHT22;5068;51.286;7.518;2022-08-03T04:30:04;14.40;65.90
10057;DHT22;5068;51.286;7.518;2022-08-03T04:31:39;14.40;65.90
10057;DHT22;5068;51.286;7.518;2022-08-03T04:33:15;14.40;65.90
10057;DHT22;5068;51.286;7.518;2022-08-03T04:34:50;14.40;65.90
10057;DHT22;5068;51.286;7.518;2022-08-03T04:36:25;14.40;66.00
10057;DHT22;5068;51.286;7.518;2022-08-03T04:38:06;14.40;66.90
10057;DHT22;5068;51.286;7.518;2022-08-03T04:39:42;14.40;66.20
10057;DHT22;5068;51.286;7.518;2022-08-03T04:41:19;14.40;66.20
10057;DHT22;5068;51.286;7.518;2022-08-03T04:42:57;14.30;66.10
10057;DHT22;5068;51.286;7.518;2022-08-03T04:44:35;14.30;66.10
10057;DHT22;5068;51.286;7.518;2022-08-03T04:46:11;14.30;66.20
10057;DHT22;5068;51.286;7.518;2022-08-03T04:47:46;14.30;66.20
10057;DHT22;5068;51.286;7.518;2022-08-03T04:49:20;14.30;66.30
10057;DHT22;5068;51.286;7.518;2022-08-03T04:50:55;14.30;66.40
10057;DHT22;5068;51.286;7.518;2022-08-03T04:52:29;14.30;67.00
10057;DHT22;5068;51.286;7.518;2022-08-03T04:54:03;14.30;66.50
10057;DHT22;5068;51.286;7.518;2022-08-03T04:55:38;14.30;66.60
10057;DHT22;5068;51.286;7.518;2022-08-03T04:57:13;14.30;66.70
10057;DHT22;5068;51.286;7.518;2022-08-03T04:58:54;14.30;66.70
10057;DHT22;5068;51.286;7.518;2022-08-03T05:00:28;14.30;66.80
10057;DHT22;5068;51.286;7.518;2022-08-03T05:02:02;14.30;66.80
10057;DHT22;5068;51.286;7.518;2022-08-03T05:03:35;14.30;67.00
10057;DHT22;5068;51.286;7.518;2022-08-03T05:05:09;14.30;67.20
10057;DHT22;5068;51.286;7.518;2022-08-03T05:06:43;14.30;67.30
10057;DHT22;5068;51.286;7.518;2022-08-03T05:08:26;14.30;67.30
10057;DHT22;5068;51.286;7.518;2022-08-03T05:10:00;14.30;67.30
10057;DHT22;5068;51.286;7.518;2022-08-03T05:11:34;14.30;67.30
10057;DHT22;5068;51.286;7.518;2022-08-03T05:13:11;14.30;67.30
10057;DHT22;5068;51.286;7.518;2022-08-03T05:14:45;14.30;67.30
10057;DHT22;5068;51.286;7.518;2022-08-03T05:16:19;14.30;67.30
10057;DHT22;5068;51.286;7.518;2022-08-03T05:17:52;14.30;67.30
10057;DHT22;5068;51.286;7.518;2022-08-03T05:19:25;14.30;67.30
10057;DHT22;5068;51.286;7.518;2022-08-03T05:20:59;14.30;67.30
10057;DHT22;5068;51.286;7.518;2022-08-03T05:22:33;14.30;67.30
10057;DHT22;5068;51.286;7.518;2022-08-03T05:24:07;14.30;67.50
10057;DHT22;5068;51.286;7.518;2022-08-03T05:25:41;14.30;67.80
10057;DHT22;5068;51.286;7.518;2022-08-03T05:27:21;14.30;67.90
10057;DHT22;5068;51.286;7.518;2022-08-03T05:28:56;14.30;68.10
10057;DHT22;5068;51.286;7.518;2022-08-03T05:30:29;14.40;68.50
10057;DHT22;5068;51.286;7.518;2022-08-03T05:32:05;14.30;68.50
10057;DHT22;5068;51.286;7.518;2022-08-03T05:33:39;14.40;68.80
10057;DHT22;5068;51.286;7.518;2022-08-03T05:35:14;14.40;68.90
10057;DHT22;5068;51.286;7.518;2022-08-03T05:37:07;14.40;69.10
10057;DHT22;5068;51.286;7.518;2022-08-03T05:38:42;14.50;69.30
10057;DHT22;5068;51.286;7.518;2022-08-03T05:40:16;14.50;69.50
10057;DHT22;5068;51.286;7.518;2022-08-03T05:41:49;14.50;69.60
10057;DHT22;5068;51.286;7.518;2022-08-03T05:43:23;14.50;69.70
10057;DHT22;5068;51.286;7.518;2022-08-03T05:44:58;14.60;70.10
10057;DHT22;5068;51.286;7.518;2022-08-03T05:46:44;14.50;70.20
10057;DHT22;5068;51.286;7.518;2022-08-03T05:48:17;14.60;70.40
10057;DHT22;5068;51.286;7.518;2022-08-03T05:49:50;14.60;70.70
10057;DHT22;5068;51.286;7.518;2022-08-03T05:51:24;14.70;70.90
10057;DHT22;5068;51.286;7.518;2022-08-03T05:52:58;14.70;71.00
10057;DHT22;5068;51.286;7.518;2022-08-03T05:54:31;14.70;71.10
10057;DHT22;5068;51.286;7.518;2022-08-03T05:56:25;14.80;71.40
10057;DHT22;5068;51.286;7.518;2022-08-03T05:57:58;14.90;71.40
10057;DHT22;5068;51.286;7.518;2022-08-03T05:59:33;14.90;71.40
10057;DHT22;5068;51.286;7.518;2022-08-03T06:01:11;14.90;71.40
10057;DHT22;5068;51.286;7.518;2022-08-03T06:02:44;15.00;71.50
10057;DHT22;5068;51.286;7.518;2022-08-03T06:04:18;15.00;71.50
10057;DHT22;5068;51.286;7.518;2022-08-03T06:05:53;15.10;71.60
10057;DHT22;5068;51.286;7.518;2022-08-03T06:07:31;15.20;71.70
10057;DHT22;5068;51.286;7.518;2022-08-03T06:09:05;15.20;71.60
10057;DHT22;5068;51.286;7.518;2022-08-03T06:10:39;15.30;71.70
10057;DHT22;5068;51.286;7.518;2022-08-03T06:12:12;15.40;71.60
10057;DHT22;5068;51.286;7.518;2022-08-03T06:13:46;15.40;71.60
10057;DHT22;5068;51.286;7.518;2022-08-03T06:15:20;15.50;72.60
10057;DHT22;5068;51.286;7.518;2022-08-03T06:16:54;15.50;71.80
10057;DHT22;5068;51.286;7.518;2022-08-03T06:18:28;15.60;71.90
10057;DHT22;5068;51.286;7.518;2022-08-03T06:20:01;15.70;72.00
10057;DHT22;5068;51.286;7.518;2022-08-03T06:21:35;15.70;72.80
10057;DHT22;5068;51.286;7.518;2022-08-03T06:23:11;15.80;72.10
10057;DHT22;5068;51.286;7.518;2022-08-03T06:24:48;15.80;72.10
10057;DHT22;5068;51.286;7.518;2022-08-03T06:26:26;15.90;72.20
10057;DHT22;5068;51.286;7.518;2022-08-03T06:28:00;16.00;72.30
10057;DHT22;5068;51.286;7.518;2022-08-03T06:29:34;16.00;72.10
10057;DHT22;5068;51.286;7.518;2022-08-03T06:31:08;16.10;72.20
10057;DHT22;5068;51.286;7.518;2022-08-03T06:32:43;16.20;72.10
10057;DHT22;5068;51.286;7.518;2022-08-03T06:34:23;16.20;72.10
10057;DHT22;5068;51.286;7.518;2022-08-03T06:36:06;16.30;72.10
10057;DHT22;5068;51.286;7.518;2022-08-03T06:37:43;16.40;72.10
10057;DHT22;5068;51.286;7.518;2022-08-03T06:39:17;16.40;72.00
10057;DHT22;5068;51.286;7.518;2022-08-03T06:40:50;16.50;71.90
10057;DHT22;5068;51.286;7.518;2022-08-03T06:42:24;16.60;72.00
10057;DHT22;5068;51.286;7.518;2022-08-03T06:43:58;16.70;72.10
10057;DHT22;5068;51.286;7.518;2022-08-03T06:45:35;16.70;72.10
10057;DHT22;5068;51.286;7.518;2022-08-03T06:47:09;16.70;72.00
10057;DHT22;5068;51.286;7.518;2022-08-03T06:48:44;16.90;72.10
10057;DHT22;5068;51.286;7.518;2022-08-03T06:50:18;16.90;72.10
10057;DHT22;5068;51.286;7.518;2022-08-03T06:51:57;17.00;72.00
10057;DHT22;5068;51.286;7.518;2022-08-03T06:53:37;17.10;71.90
10057;DHT22;5068;51.286;7.518;2022-08-03T06:55:10;17.20;72.10
10057;DHT22;5068;51.286;7.518;2022-08-03T06:56:44;17.20;71.40
10057;DHT22;5068;51.286;7.518;2022-08-03T06:58:16;17.30;71.40
10057;DHT22;5068;51.286;7.518;2022-08-03T06:59:49;17.40;71.30
10057;DHT22;5068;51.286;7.518;2022-08-03T07:01:43;17.50;71.00
10057;DHT22;5068;51.286;7.518;2022-08-03T07:03:17;17.60;70.90
10057;DHT22;5068;51.286;7.518;2022-08-03T07:04:51;17.60;70.90
10057;DHT22;5068;51.286;7.518;2022-08-03T07:06:25;17.70;70.90
10057;DHT22;5068;51.286;7.518;2022-08-03T07:07:59;17.80;70.70
10057;DHT22;5068;51.286;7.518;2022-08-03T07:09:33;17.90;70.60
10057;DHT22;5068;51.286;7.518;2022-08-03T07:11:07;18.00;70.10
10057;DHT22;5068;51.286;7.518;2022-08-03T07:12:41;18.10;69.70
10057;DHT22;5068;51.286;7.518;2022-08-03T07:14:27;18.20;69.40
10057;DHT22;5068;51.286;7.518;2022-08-03T07:16:02;18.30;69.10
10057;DHT22;5068;51.286;7.518;2022-08-03T07:17:35;18.40;68.90
10057;DHT22;5068;51.286;7.518;2022-08-03T07:19:09;18.50;68.70
10057;DHT22;5068;51.286;7.518;2022-08-03T07:20:44;18.60;68.70
10057;DHT22;5068;51.286;7.518;2022-08-03T07:22:18;18.70;68.10
10057;DHT22;5068;51.286;7.518;2022-08-03T07:23:52;18.80;68.00
10057;DHT22;5068;51.286;7.518;2022-08-03T07:25:25;18.90;67.90
10057;DHT22;5068;51.286;7.518;2022-08-03T07:26:59;19.00;67.70
10057;DHT22;5068;51.286;7.518;2022-08-03T07:28:33;19.10;67.50
10057;DHT22;5068;51.286;7.518;2022-08-03T07:30:08;19.20;67.40
10057;DHT22;5068;51.286;7.518;2022-08-03T07:31:42;19.30;67.60
10057;DHT22;5068;51.286;7.518;2022-08-03T07:33:15;19.40;67.30
10057;DHT22;5068;51.286;7.518;2022-08-03T07:34:49;19.60;67.70
10057;DHT22;5068;51.286;7.518;2022-08-03T07:36:30;19.70;66.80
10057;DHT22;5068;51.286;7.518;2022-08-03T07:38:05;19.80;67.10
10057;DHT22;5068;51.286;7.518;2022-08-03T07:39:39;19.90;66.90
10057;DHT22;5068;51.286;7.518;2022-08-03T07:41:12;20.00;67.20
10057;DHT22;5068;51.286;7.518;2022-08-03T07:42:46;20.10;66.70
10057;DHT22;5068;51.286;7.518;2022-08-03T07:44:24;20.30;65.70
10057;DHT22;5068;51.286;7.518;2022-08-03T07:45:58;20.30;65.00
10057;DHT22;5068;51.286;7.518;2022-08-03T07:47:31;20.50;64.50
10057;DHT22;5068;51.286;7.518;2022-08-03T07:49:07;20.60;65.40
10057;DHT22;5068;51.286;7.518;2022-08-03T07:50:40;20.70;64.60
10057;DHT22;5068;51.286;7.518;2022-08-03T07:52:15;20.80;64.80
10057;DHT22;5068;51.286;7.518;2022-08-03T07:54:06;21.00;64.10
10057;DHT22;5068;51.286;7.518;2022-08-03T07:55:41;21.10;63.00
10057;DHT22;5068;51.286;7.518;2022-08-03T07:57:14;21.20;62.60
10057;DHT22;5068;51.286;7.518;2022-08-03T07:58:48;21.30;61.80
10057;DHT22;5068;51.286;7.518;2022-08-03T08:00:22;21.50;60.30
10057;DHT22;5068;51.286;7.518;2022-08-03T08:01:55;21.60;59.40
10057;DHT22;5068;51.286;7.518;2022-08-03T08:03:29;21.70;58.80
10057;DHT22;5068;51.286;7.518;2022-08-03T08:05:23;21.80;58.20
10057;DHT22;5068;51.286;7.518;2022-08-03T08:06:57;21.90;57.40
10057;DHT22;5068;51.286;7.518;2022-08-03T08:08:32;22.10;57.30
10057;DHT22;5068;51.286;7.518;2022-08-03T08:10:06;22.20;57.20
10057;DHT22;5068;51.286;7.518;2022-08-03T08:11:41;22.30;56.00
10057;DHT22;5068;51.286;7.518;2022-08-03T08:13:15;22.50;55.50
10057;DHT22;5068;51.286;7.518;2022-08-03T08:14:48;22.60;54.70
10057;DHT22;5068;51.286;7.518;2022-08-03T08:16:21;22.70;55.00
10057;DHT22;5068;51.286;7.518;2022-08-03T08:17:59;22.80;55.20
10057;DHT22;5068;51.286;7.518;2022-08-03T08:19:34;23.00;53.80
10057;DHT22;5068;51.286;7.518;2022-08-03T08:21:14;23.10;54.40
10057;DHT22;5068;51.286;7.518;2022-08-03T08:22:48;23.20;53.50
10057;DHT22;5068;51.286;7.518;2022-08-03T08:24:24;23.40;52.80
10057;DHT22;5068;51.286;7.518;2022-08-03T08:25:58;23.40;52.80
10057;DHT22;5068;51.286;7.518;2022-08-03T08:27:33;23.60;52.70
10057;DHT22;5068;51.286;7.518;2022-08-03T08:29:33;23.70;52.20
10057;DHT22;5068;51.286;7.518;2022-08-03T08:31:18;23.80;51.90
10057;DHT22;5068;51.286;7.518;2022-08-03T08:32:52;24.00;52.30
10057;DHT22;5068;51.286;7.518;2022-08-03T08:34:25;24.10;52.00
10057;DHT22;5068;51.286;7.518;2022-08-03T08:35:59;24.20;51.10
10057;DHT22;5068;51.286;7.518;2022-08-03T08:37:33;24.30;50.50
10057;DHT22;5068;51.286;7.518;2022-08-03T08:39:07;24.50;50.70
10057;DHT22;5068;51.286;7.518;2022-08-03T08:40:42;24.60;49.60
10057;DHT22;5068;51.286;7.518;2022-08-03T08:42:15;24.70;49.10
10057;DHT22;5068;51.286;7.518;2022-08-03T08:43:49;24.80;49.10
10057;DHT22;5068;51.286;7.518;2022-08-03T08:45:22;24.90;48.80
10057;DHT22;5068;51.286;7.518;2022-08-03T08:47:02;25.00;48.70
10057;DHT22;5068;51.286;7.518;2022-08-03T08:48:39;25.10;48.00
10057;DHT22;5068;51.286;7.518;2022-08-03T08:50:18;25.20;48.10
10057;DHT22;5068;51.286;7.518;2022-08-03T08:52:00;25.30;48.10
10057;DHT22;5068;51.286;7.518;2022-08-03T08:53:57;25.40;47.90
10057;DHT22;5068;51.286;7.518;2022-08-03T08:55:34;25.50;47.80
10057;DHT22;5068;51.286;7.518;2022-08-03T08:57:33;25.60;47.70
10057;DHT22;5068;51.286;7.518;2022-08-03T08:59:16;25.70;46.70
10057;DHT22;5068;51.286;7.518;2022-08-03T09:00:51;25.80;47.10
10057;DHT22;5068;51.286;7.518;2022-08-03T09:02:28;25.90;46.40
10057;DHT22;5068;51.286;7.518;2022-08-03T09:04:05;26.00;46.40
10057;DHT22;5068;51.286;7.518;2022-08-03T09:05:41;26.10;45.70
10057;DHT22;5068;51.286;7.518;2022-08-03T09:07:28;26.20;45.50
10057;DHT22;5068;51.286;7.518;2022-08-03T09:09:03;26.30;45.50
10057;DHT22;5068;51.286;7.518;2022-08-03T09:10:38;26.40;45.00
10057;DHT22;5068;51.286;7.518;2022-08-03T09:12:12;26.50;45.20
10057;DHT22;5068;51.286;7.518;2022-08-03T09:14:06;26.60;45.10
10057;DHT22;5068;51.286;7.518;2022-08-03T09:16:11;26.60;44.90
10057;DHT22;5068;51.286;7.518;2022-08-03T09:17:46;26.80;44.00
10057;DHT22;5068;51.286;7.518;2022-08-03T09:19:22;26.80;44.60
10057;DHT22;5068;51.286;7.518;2022-08-03T09:21:12;26.90;44.10
10057;DHT22;5068;51.286;7.518;2022-08-03T09:23:04;27.00;42.70
10057;DHT22;5068;51.286;7.518;2022-08-03T09:25:03;27.00;43.10
10057;DHT22;5068;51.286;7.518;2022-08-03T09:26:55;27.10;43.30
10057;DHT22;5068;51.286;7.518;2022-08-03T09:28:33;27.30;43.20
10057;DHT22;5068;51.286;7.518;2022-08-03T09:30:28;27.30;42.80
10057;DHT22;5068;51.286;7.518;2022-08-03T09:32:06;27.40;43.40
10057;DHT22;5068;51.286;7.518;2022-08-03T09:33:46;27.40;42.30
10057;DHT22;5068;51.286;7.518;2022-08-03T09:35:25;27.50;41.60
10057;DHT22;5068;51.286;7.518;2022-08-03T09:37:20;27.50;41.20
10057;DHT22;5068;51.286;7.518;2022-08-03T09:39:18;27.50;41.60
10057;DHT22;5068;51.286;7.518;2022-08-03T09:41:17;27.60;42.00
10057;DHT22;5068;51.286;7.518;2022-08-03T09:42:55;27.70;41.70
10057;DHT22;5068;51.286;7.518;2022-08-03T09:44:33;27.80;41.10
10057;DHT22;5068;51.286;7.518;2022-08-03T09:46:09;27.80;40.70
10057;DHT22;5068;51.286;7.518;2022-08-03T09:47:43;27.90;41.10
10057;DHT22;5068;51.286;7.518;2022-08-03T09:49:17;27.90;41.30
10057;DHT22;5068;51.286;7.518;2022-08-03T09:50:52;28.00;41.60
10057;DHT22;5068;51.286;7.518;2022-08-03T09:52:45;28.00;41.00
10057;DHT22;5068;51.286;7.518;2022-08-03T09:54:27;28.10;40.60
10057;DHT22;5068;51.286;7.518;2022-08-03T09:56:02;28.20;40.30
10057;DHT22;5068;51.286;7.518;2022-08-03T09:58:04;28.20;40.20
10057;DHT22;5068;51.286;7.518;2022-08-03T09:59:39;28.30;40.50
10057;DHT22;5068;51.286;7.518;2022-08-03T10:01:17;28.30;40.40
10057;DHT22;5068;51.286;7.518;2022-08-03T10:03:03;28.40;40.30
10057;DHT22;5068;51.286;7.518;2022-08-03T10:04:46;28.40;40.50
10057;DHT22;5068;51.286;7.518;2022-08-03T10:06:21;28.50;40.40
10057;DHT22;5068;51.286;7.518;2022-08-03T10:08:00;28.50;40.60
10057;DHT22;5068;51.286;7.518;2022-08-03T10:09:55;28.70;40.00
10057;DHT22;5068;51.286;7.518;2022-08-03T10:11:49;28.70;39.30
10057;DHT22;5068;51.286;7.518;2022-08-03T10:13:23;28.80;39.50
10057;DHT22;5068;51.286;7.518;2022-08-03T10:14:56;28.90;39.40
10057;DHT22;5068;51.286;7.518;2022-08-03T10:16:35;28.90;39.30
10057;DHT22;5068;51.286;7.518;2022-08-03T10:18:10;29.00;38.60
10057;DHT22;5068;51.286;7.518;2022-08-03T10:19:44;29.00;38.90
10057;DHT22;5068;51.286;7.518;2022-08-03T10:21:18;29.10;39.30
10057;DHT22;5068;51.286;7.518;2022-08-03T10:22:53;29.10;38.70
10057;DHT22;5068;51.286;7.518;2022-08-03T10:24:29;29.10;39.00
10057;DHT22;5068;51.286;7.518;2022-08-03T10:26:09;29.20;38.50
10057;DHT22;5068;51.286;7.518;2022-08-03T10:27:50;29.30;38.40
10057;DHT22;5068;51.286;7.518;2022-08-03T10:29:27;29.30;38.20
10057;DHT22;5068;51.286;7.518;2022-08-03T10:31:03;29.40;38.00
10057;DHT22;5068;51.286;7.518;2022-08-03T10:32:42;29.40;38.30
10057;DHT22;5068;51.286;7.518;2022-08-03T10:34:22;29.50;37.70